createdAt,value
2018-01-05T00:01:40.777Z,98.40
2018-01-05T00:04:08.822Z,98.60
2018-01-05T00:06:36.856Z,98.60
2018-01-05T00:09:05.131Z,98.30
2018-01-05T00:11:34.646Z,98.50
2018-01-05T00:19:41.995Z,99.10
2018-01-05T00:22:11.092Z,99.50
2018-01-05T00:24:39.249Z,99.50
2018-01-05T00:27:07.838Z,98.40
2018-01-05T00:29:38.673Z,98.60
2018-01-05T00:32:07.261Z,98.70
2018-01-05T00:37:38.571Z,99.50
2018-01-05T00:40:07.678Z,99.10
2018-01-05T00:42:40.655Z,99.10
2018-01-05T00:50:56.610Z,98.30
2018-01-05T00:53:24.696Z,98.60
2018-01-05T00:55:52.842Z,99.00
2018-01-05T00:58:21.719Z,98.70
2018-01-05T01:00:49.844Z,98.70
2018-01-05T01:03:17.912Z,98.20
2018-01-05T01:05:45.988Z,98.20
2018-01-05T01:08:15.165Z,98.10
2018-01-05T01:10:43.427Z,98.30
2018-01-05T01:13:12.272Z,98.80
2018-01-05T01:15:40.343Z,98.70
2018-01-05T01:18:08.302Z,98.80
2018-01-05T01:20:36.346Z,98.50
2018-01-05T01:23:05.097Z,98.30
2018-01-05T01:25:33.111Z,98.30
2018-01-05T01:28:02.201Z,98.00
2018-01-05T01:30:30.237Z,98.00
2018-01-05T01:32:58.327Z,97.90
2018-01-05T01:35:26.316Z,98.00
2018-01-05T01:38:07.903Z,98.00
2018-01-05T01:40:36.724Z,97.90
2018-01-05T01:43:06.099Z,97.90
2018-01-05T01:45:34.226Z,98.50
2018-01-05T01:48:02.299Z,98.60
2018-01-05T01:50:30.305Z,98.50
2018-01-05T01:53:01.861Z,98.70
2018-01-05T01:55:29.906Z,98.60
2018-01-05T01:57:57.943Z,98.30
2018-01-05T02:00:26.032Z,98.70
2018-01-05T02:02:54.279Z,98.90
2018-01-05T02:05:22.364Z,99.70
2018-01-05T02:07:54.487Z,99.60
2018-01-05T02:10:22.536Z,99.80
2018-01-05T02:12:50.603Z,99.40
2018-01-05T02:15:18.730Z,99.20
2018-01-05T02:17:47.756Z,99.70
2018-01-05T02:20:16.646Z,99.60
2018-01-05T02:22:44.701Z,99.70
2018-01-05T02:25:12.769Z,99.80
2018-01-05T02:27:40.761Z,99.50
2018-01-05T02:30:08.885Z,99.90
2018-01-05T02:32:36.907Z,99.40
2018-01-05T02:35:05.052Z,99.70
2018-01-05T02:37:33.219Z,99.00
2018-01-05T02:40:01.334Z,99.00
2018-01-05T02:42:29.358Z,99.40
2018-01-05T02:44:57.392Z,99.60
2018-01-05T02:47:25.358Z,99.00
2018-01-05T02:49:53.378Z,99.00
2018-01-05T02:52:22.186Z,99.40
2018-01-05T02:54:51.499Z,99.40
2018-01-05T02:57:19.521Z,99.60
2018-01-05T02:59:47.546Z,99.70
2018-01-05T03:02:15.560Z,99.40
2018-01-05T03:04:43.520Z,99.00
2018-01-05T03:07:15.554Z,99.00
2018-01-05T03:09:43.579Z,99.30
2018-01-05T03:12:11.660Z,99.50
2018-01-05T03:14:39.652Z,99.30
2018-01-05T03:17:07.694Z,99.20
2018-01-05T03:19:35.639Z,99.50
2018-01-05T03:22:03.629Z,99.70
2018-01-05T03:24:31.616Z,99.70
2018-01-05T03:26:59.603Z,99.80
2018-01-05T03:29:27.564Z,99.90
2018-01-05T03:31:55.579Z,99.90
2018-01-05T03:34:23.523Z,99.90
2018-01-05T03:36:56.376Z,99.90
2018-01-05T03:39:24.418Z,99.90
2018-01-05T03:41:55.154Z,99.90
2018-01-05T03:44:25.233Z,99.90
2018-01-05T03:46:56.403Z,99.90
2018-01-05T03:49:26.960Z,99.90
2018-01-05T03:51:58.695Z,99.90
2018-01-05T03:54:29.858Z,99.90
2018-01-05T03:57:00.312Z,99.90
2018-01-05T03:59:32.145Z,99.90
2018-01-05T04:02:02.415Z,99.90
2018-01-05T04:04:35.894Z,99.90
2018-01-05T04:07:05.993Z,99.90
2018-01-05T04:09:34.087Z,99.90
2018-01-05T04:12:02.853Z,99.90
2018-01-05T04:14:31.607Z,99.90
2018-01-05T04:16:59.707Z,99.90
2018-01-05T04:19:27.721Z,99.90
2018-01-05T04:21:56.707Z,99.90
2018-01-05T04:24:24.930Z,99.90
2018-01-05T04:26:52.915Z,99.90
2018-01-05T04:29:21.749Z,99.90
2018-01-05T04:31:50.731Z,99.90
2018-01-05T04:34:20.808Z,99.90
2018-01-05T04:36:48.922Z,99.90
2018-01-05T04:39:23.660Z,99.90
2018-01-05T04:41:58.674Z,99.90
2018-01-05T04:44:26.781Z,99.90
2018-01-05T04:47:11.194Z,99.90
2018-01-05T04:49:45.478Z,99.90
2018-01-05T04:55:34.622Z,99.90
2018-01-05T04:58:11.117Z,99.90
2018-01-05T05:00:41.567Z,99.90
2018-01-05T05:03:14.709Z,99.90
2018-01-05T05:05:42.692Z,99.90
2018-01-05T05:08:20.646Z,99.90
2018-01-05T05:10:59.268Z,99.90
2018-01-05T05:13:28.972Z,99.90
2018-01-05T05:15:58.853Z,99.90
2018-01-05T05:18:33.012Z,99.90
2018-01-05T05:21:08.038Z,99.90
2018-01-05T05:30:16.361Z,99.90
2018-01-05T05:32:45.424Z,99.90
2018-01-05T05:35:13.618Z,99.90
2018-01-05T05:37:45.888Z,99.90
2018-01-05T05:40:14.216Z,99.90
2018-01-05T05:42:42.377Z,99.90
2018-01-05T05:45:10.664Z,99.90
2018-01-05T05:47:39.401Z,99.90
2018-01-05T05:50:07.820Z,99.90
2018-01-05T05:52:43.007Z,99.90
2018-01-05T05:55:14.126Z,99.90
2018-01-05T05:57:43.272Z,99.90
2018-01-05T06:00:18.024Z,99.90
2018-01-05T06:08:01.581Z,99.90
2018-01-05T06:10:29.599Z,99.90
2018-01-05T06:12:58.456Z,99.90
2018-01-05T06:15:26.576Z,99.90
2018-01-05T06:17:54.695Z,99.90
2018-01-05T06:20:22.821Z,99.90
2018-01-05T06:22:50.896Z,99.90
2018-01-05T06:25:19.009Z,99.90
2018-01-05T06:27:48.046Z,99.90
2018-01-05T06:30:16.172Z,99.90
2018-01-05T06:32:46.793Z,99.90
2018-01-05T06:38:14.247Z,99.90
2018-01-05T06:40:43.970Z,99.90
2018-01-05T06:43:12.240Z,99.90
2018-01-05T06:45:40.355Z,99.90
2018-01-05T06:48:08.455Z,99.90
2018-01-05T06:50:36.544Z,99.90
2018-01-05T06:53:04.633Z,99.90
2018-01-05T06:55:32.699Z,99.90
2018-01-05T06:58:00.706Z,99.90
2018-01-05T07:00:28.832Z,99.90
2018-01-05T07:02:56.860Z,99.90
2018-01-05T07:05:25.688Z,99.90
2018-01-05T07:07:53.720Z,99.90
2018-01-05T07:10:22.556Z,99.90
2018-01-05T07:12:50.664Z,99.90
2018-01-05T07:15:18.765Z,99.90
2018-01-05T07:17:47.018Z,99.90
2018-01-05T07:20:15.196Z,99.90
2018-01-05T07:22:43.360Z,99.90
2018-01-05T07:25:11.606Z,99.90
2018-01-05T07:27:39.762Z,99.90
2018-01-05T07:30:07.830Z,99.90
2018-01-05T07:32:35.950Z,99.90
2018-01-05T07:35:04.829Z,99.90
2018-01-05T07:37:32.937Z,99.90
2018-01-05T07:40:00.988Z,99.90
2018-01-05T07:42:29.187Z,99.90
2018-01-05T07:44:57.464Z,99.90
2018-01-05T07:47:25.549Z,99.90
2018-01-05T07:49:53.591Z,99.90
2018-01-05T07:52:21.721Z,99.90
2018-01-05T07:54:49.797Z,99.90
2018-01-05T07:57:18.155Z,99.90
2018-01-05T07:59:46.245Z,99.90
2018-01-05T08:02:14.663Z,99.90
2018-01-05T08:04:42.805Z,99.90
2018-01-05T08:07:10.935Z,99.90
2018-01-05T08:09:39.024Z,99.90
2018-01-05T08:12:07.166Z,99.90
2018-01-05T08:14:35.223Z,99.90
2018-01-05T08:17:05.523Z,99.90
2018-01-05T08:19:33.916Z,99.90
2018-01-05T08:22:01.964Z,99.90
2018-01-05T08:24:30.092Z,99.90
2018-01-05T08:26:58.239Z,99.90
2018-01-05T08:29:26.329Z,99.90
2018-01-05T08:31:54.444Z,99.90
2018-01-05T08:34:22.561Z,99.90
2018-01-05T08:36:50.612Z,99.90
2018-01-05T08:39:18.743Z,99.90
2018-01-05T08:41:46.944Z,99.90
2018-01-05T08:44:15.062Z,99.90
2018-01-05T08:46:43.086Z,99.90
2018-01-05T08:49:11.284Z,99.90
2018-01-05T08:51:39.397Z,99.90
2018-01-05T08:54:07.735Z,99.90
2018-01-05T08:56:35.846Z,99.90
2018-01-05T08:59:04.023Z,99.90
2018-01-05T09:01:32.085Z,99.90
2018-01-05T09:04:00.243Z,99.90
2018-01-05T09:06:28.453Z,99.90
2018-01-05T09:08:57.502Z,99.90
2018-01-05T09:11:25.778Z,99.90
2018-01-05T09:13:53.961Z,99.90
2018-01-05T09:16:22.059Z,99.90
2018-01-05T09:18:50.239Z,99.90
2018-01-05T09:21:18.318Z,99.90
2018-01-05T09:23:46.437Z,99.90
2018-01-05T09:26:14.495Z,99.90
2018-01-05T09:28:42.578Z,99.90
2018-01-05T09:31:10.819Z,99.90
2018-01-05T09:33:38.938Z,99.90
2018-01-05T09:36:07.104Z,99.90
2018-01-05T09:38:35.192Z,99.90
2018-01-05T09:41:03.330Z,99.90
2018-01-05T09:43:31.342Z,99.90
2018-01-05T09:45:59.494Z,99.90
2018-01-05T09:48:28.464Z,99.90
2018-01-05T09:50:56.658Z,99.90
2018-01-05T09:53:24.794Z,99.90
2018-01-05T09:55:53.000Z,99.90
2018-01-05T09:58:21.106Z,99.90
2018-01-05T10:00:49.212Z,99.90
2018-01-05T10:03:17.290Z,99.90
2018-01-05T10:05:45.450Z,99.90
2018-01-05T10:08:19.907Z,99.90
2018-01-05T10:10:48.277Z,99.90
2018-01-05T10:13:17.113Z,99.90
2018-01-05T10:15:45.308Z,99.90
2018-01-05T10:18:14.384Z,99.90
2018-01-05T10:20:42.537Z,99.90
2018-01-05T10:23:10.717Z,99.90
2018-01-05T10:25:38.802Z,99.90
2018-01-05T10:28:07.650Z,99.90
2018-01-05T10:30:35.827Z,99.90
2018-01-05T10:33:03.972Z,99.90
2018-01-05T10:35:32.075Z,99.90
2018-01-05T10:38:01.414Z,99.90
2018-01-05T10:40:29.416Z,99.90
2018-01-05T10:42:57.481Z,99.90
2018-01-05T10:45:26.251Z,99.90
2018-01-05T10:47:54.327Z,99.90
2018-01-05T10:50:22.310Z,99.90
2018-01-05T10:52:50.400Z,99.90
2018-01-05T10:55:18.463Z,99.90
2018-01-05T10:57:46.789Z,99.90
2018-01-05T11:00:15.707Z,99.90
2018-01-05T11:02:43.810Z,99.90
2018-01-05T11:05:11.993Z,99.90
2018-01-05T11:07:40.125Z,99.90
2018-01-05T11:10:08.156Z,99.90
2018-01-05T11:12:36.274Z,99.90
2018-01-05T11:15:04.367Z,99.90
2018-01-05T11:17:32.475Z,99.90
2018-01-05T11:20:00.540Z,99.90
2018-01-05T11:22:28.679Z,99.90
2018-01-05T11:24:56.822Z,99.90
2018-01-05T11:27:32.476Z,99.90
2018-01-05T11:30:02.620Z,99.90
2018-01-05T11:32:30.900Z,99.90
2018-01-05T11:34:59.172Z,99.90
2018-01-05T11:37:27.309Z,99.90
2018-01-05T11:39:58.787Z,99.90
2018-01-05T11:42:31.613Z,99.90
2018-01-05T11:45:03.545Z,99.90
2018-01-05T11:47:35.080Z,99.90
2018-01-05T11:50:06.475Z,99.90
2018-01-05T11:52:34.830Z,99.90
2018-01-05T11:55:02.926Z,99.90
2018-01-05T11:57:30.993Z,99.90
2018-01-05T11:59:59.275Z,99.90
2018-01-05T12:02:27.323Z,99.90
2018-01-05T12:04:55.761Z,99.90
2018-01-05T12:07:26.110Z,99.90
2018-01-05T12:09:54.219Z,99.90
2018-01-05T12:12:22.354Z,99.90
2018-01-05T12:14:50.532Z,99.90
2018-01-05T12:17:19.510Z,99.90
2018-01-05T12:19:47.710Z,99.90
2018-01-05T12:22:16.434Z,99.90
2018-01-05T12:24:45.287Z,99.90
2018-01-05T12:27:13.977Z,99.90
2018-01-05T12:29:42.216Z,99.90
2018-01-05T12:32:10.449Z,99.90
2018-01-05T12:34:38.591Z,99.90
2018-01-05T12:37:06.876Z,99.90
2018-01-05T12:39:35.674Z,99.90
2018-01-05T12:42:03.846Z,99.90
2018-01-05T12:44:31.964Z,99.90
2018-01-05T12:47:00.141Z,99.90
2018-01-05T12:49:28.311Z,99.90
2018-01-05T12:51:56.394Z,99.90
2018-01-05T12:54:25.690Z,99.90
2018-01-05T12:56:54.889Z,99.90
2018-01-05T12:59:23.013Z,99.90
2018-01-05T13:01:51.317Z,99.90
2018-01-05T13:04:19.481Z,99.90
2018-01-05T13:06:47.649Z,99.90
2018-01-05T13:09:16.222Z,99.90
2018-01-05T13:11:47.869Z,99.90
2018-01-05T13:14:15.989Z,99.90
2018-01-05T13:16:44.176Z,99.90
2018-01-05T13:19:12.444Z,99.90
2018-01-05T13:21:40.699Z,99.90
2018-01-05T13:24:08.922Z,99.90
2018-01-05T13:26:38.063Z,99.90
2018-01-05T13:29:07.701Z,99.90
2018-01-05T13:31:36.006Z,99.90
2018-01-05T13:34:04.434Z,99.90
2018-01-05T13:36:35.678Z,99.90
2018-01-05T13:39:03.849Z,99.90
2018-01-05T13:41:32.448Z,99.90
2018-01-05T13:44:00.687Z,99.90
2018-01-05T13:46:29.482Z,99.90
2018-01-05T13:48:57.858Z,99.90
2018-01-05T13:51:26.267Z,99.90
2018-01-05T13:53:54.482Z,99.90
2018-01-05T13:56:22.816Z,99.90
2018-01-05T13:58:51.177Z,99.90
2018-01-05T14:01:20.135Z,99.90
2018-01-05T14:03:48.452Z,99.90
2018-01-05T14:06:16.987Z,99.90
2018-01-05T14:08:45.270Z,99.90
2018-01-05T14:11:13.353Z,99.90
2018-01-05T14:13:41.481Z,99.90
2018-01-05T14:16:09.552Z,99.90
2018-01-05T14:18:39.632Z,99.90
2018-01-05T14:21:07.774Z,99.90
2018-01-05T14:23:35.963Z,99.90
2018-01-05T14:26:04.737Z,99.90
2018-01-05T14:28:33.255Z,99.90
2018-01-05T14:31:02.549Z,99.90
2018-01-05T14:33:30.747Z,99.90
2018-01-05T14:35:58.918Z,99.90
2018-01-05T14:38:27.978Z,99.90
2018-01-05T14:40:56.052Z,99.90
2018-01-05T14:43:24.274Z,99.90
2018-01-05T14:45:52.443Z,99.90
2018-01-05T14:48:20.657Z,99.90
2018-01-05T14:50:48.777Z,99.90
2018-01-05T14:53:16.922Z,99.90
2018-01-05T14:55:45.558Z,99.90
2018-01-05T14:58:13.845Z,99.90
2018-01-05T15:00:42.299Z,99.90
2018-01-05T15:03:10.567Z,99.90
2018-01-05T15:05:38.695Z,99.90
2018-01-05T15:08:07.056Z,99.90
2018-01-05T15:10:35.261Z,99.90
2018-01-05T15:13:03.562Z,99.90
2018-01-05T15:15:31.712Z,99.90
2018-01-05T15:17:59.896Z,99.90
2018-01-05T15:20:28.135Z,99.90
2018-01-05T15:22:56.394Z,99.90
2018-01-05T15:25:25.450Z,99.90
2018-01-05T15:27:53.693Z,99.90
2018-01-05T15:30:21.912Z,99.90
2018-01-05T15:32:50.153Z,99.90
2018-01-05T15:35:18.490Z,99.90
2018-01-05T15:37:47.647Z,99.90
2018-01-05T15:40:16.010Z,99.90
2018-01-05T15:42:44.218Z,99.90
2018-01-05T15:45:12.421Z,99.90
2018-01-05T15:47:41.305Z,99.90
2018-01-05T15:50:10.355Z,99.90
2018-01-05T15:52:38.634Z,99.90
2018-01-05T15:55:08.852Z,99.90
2018-01-05T15:57:38.678Z,99.90
2018-01-05T16:00:29.910Z,99.90
2018-01-05T16:05:49.041Z,99.90
2018-01-05T16:08:19.371Z,99.90
2018-01-05T16:10:47.864Z,99.90
2018-01-05T16:13:35.455Z,99.90
2018-01-05T16:16:03.917Z,99.90
2018-01-05T16:18:31.972Z,99.90
2018-01-05T16:21:00.093Z,99.90
2018-01-05T16:23:28.338Z,99.90
2018-01-05T16:25:56.829Z,99.90
2018-01-05T16:31:11.647Z,99.90
2018-01-05T16:33:51.644Z,99.90
2018-01-05T16:36:25.077Z,99.90
2018-01-05T16:38:56.445Z,99.90
2018-01-05T16:41:29.350Z,99.90
2018-01-05T16:44:00.088Z,99.90
2018-01-05T16:46:31.517Z,99.90
2018-01-05T16:49:02.691Z,99.90
2018-01-05T16:51:34.069Z,99.90
2018-01-05T16:54:06.292Z,99.90
2018-01-05T16:56:36.360Z,99.90
2018-01-05T16:59:09.040Z,99.90
2018-01-05T17:01:49.088Z,99.90
2018-01-05T17:04:19.358Z,99.90
2018-01-05T17:06:55.478Z,99.90
2018-01-05T17:09:27.541Z,99.90
2018-01-05T17:12:01.436Z,99.90
2018-01-05T17:14:36.387Z,99.90
2018-01-05T17:17:14.908Z,99.90
2018-01-05T17:19:55.482Z,99.90
2018-01-05T17:22:26.815Z,99.90
2018-01-05T17:24:59.293Z,99.90
2018-01-05T17:27:36.029Z,99.90
2018-01-05T17:30:11.812Z,99.90
2018-01-05T17:32:45.119Z,99.90
2018-01-05T17:35:16.535Z,99.90
2018-01-05T17:37:53.903Z,99.90
2018-01-05T17:40:25.879Z,99.90
2018-01-05T17:42:57.635Z,99.90
2018-01-05T17:45:30.407Z,99.90
2018-01-05T17:48:02.828Z,99.90
2018-01-05T17:50:34.189Z,99.90
2018-01-05T17:53:07.765Z,99.90
2018-01-05T17:55:39.462Z,99.90
2018-01-05T17:58:14.870Z,99.90
2018-01-05T18:00:46.521Z,99.90
2018-01-05T18:03:19.837Z,99.90
2018-01-05T18:05:53.477Z,99.90
2018-01-05T18:08:24.099Z,99.90
2018-01-05T18:10:56.500Z,99.90
2018-01-05T18:13:28.344Z,99.90
2018-01-05T18:15:59.200Z,99.90
2018-01-05T18:24:03.359Z,99.90
2018-01-05T18:26:40.503Z,99.90
2018-01-05T18:29:16.672Z,99.90
2018-01-05T18:31:49.127Z,99.90
2018-01-05T18:34:31.600Z,99.90
2018-01-05T18:37:05.294Z,99.90
2018-01-05T18:42:43.793Z,99.90
2018-01-05T18:45:29.048Z,99.90
2018-01-05T18:50:48.896Z,99.90
2018-01-05T18:53:22.840Z,99.90
2018-01-05T18:55:56.828Z,99.90
2018-01-05T18:58:35.395Z,99.90
2018-01-05T19:18:18.997Z,99.90
2018-01-05T19:23:39.871Z,99.90
2018-01-05T19:37:40.594Z,99.90
2018-01-05T19:40:21.409Z,99.90
2018-01-05T19:42:54.081Z,99.90
2018-01-05T19:45:26.213Z,99.90
2018-01-05T19:47:59.253Z,99.90
2018-01-05T19:50:33.994Z,99.90
2018-01-05T19:53:05.304Z,99.90
2018-01-05T19:55:39.193Z,99.90
2018-01-05T19:58:14.634Z,99.90
2018-01-05T20:00:48.718Z,99.90
2018-01-05T20:03:21.687Z,99.90
2018-01-05T20:05:54.686Z,99.90
2018-01-05T20:08:26.497Z,99.90
2018-01-05T20:10:59.233Z,99.90
2018-01-05T20:13:31.796Z,99.90
2018-01-05T20:16:05.473Z,99.90
2018-01-05T20:18:37.198Z,99.90
2018-01-05T20:21:08.644Z,99.90
2018-01-05T20:23:39.962Z,99.90
2018-01-05T20:26:12.829Z,99.90
2018-01-05T20:28:45.425Z,99.90
2018-01-05T20:31:17.695Z,99.90
2018-01-05T20:33:48.503Z,99.90
2018-01-05T20:36:18.386Z,99.90
2018-01-05T20:38:48.129Z,99.90
2018-01-05T20:41:17.788Z,99.90
2018-01-05T20:43:51.309Z,99.90
2018-01-05T20:46:22.162Z,99.90
2018-01-05T20:48:53.387Z,99.90
2018-01-05T20:51:24.860Z,99.90
2018-01-05T20:53:56.915Z,99.90
2018-01-05T20:56:28.084Z,99.90
2018-01-05T20:59:02.459Z,99.90
2018-01-05T21:01:33.581Z,99.90
2018-01-05T21:04:04.729Z,99.90
2018-01-05T21:06:36.909Z,99.90
2018-01-05T21:09:08.669Z,99.90
2018-01-05T21:11:40.496Z,99.90
2018-01-05T21:14:12.442Z,99.90
2018-01-05T21:16:44.200Z,99.90
2018-01-05T21:19:15.692Z,99.90
2018-01-05T21:21:46.843Z,99.90
2018-01-05T21:24:17.286Z,99.90
2018-01-05T21:26:49.234Z,99.90
2018-01-05T21:29:20.054Z,99.90
2018-01-05T21:31:49.230Z,99.90
2018-01-05T21:34:20.243Z,99.90
2018-01-05T21:36:51.148Z,99.90
2018-01-05T21:39:22.772Z,99.90
2018-01-05T21:41:55.996Z,99.90
2018-01-05T21:44:28.066Z,99.90
2018-01-05T21:46:59.616Z,99.90
2018-01-05T21:49:31.132Z,99.90
2018-01-05T21:52:02.911Z,99.90
2018-01-05T21:54:36.901Z,99.90
2018-01-05T21:57:08.980Z,99.90
2018-01-05T21:59:39.296Z,99.90
2018-01-05T22:02:08.800Z,99.90
2018-01-05T22:04:42.141Z,99.90
2018-01-05T22:07:15.455Z,99.90
2018-01-05T22:09:48.143Z,99.90
2018-01-05T22:12:19.633Z,99.90
2018-01-05T22:14:50.972Z,99.90
2018-01-05T22:17:23.295Z,99.90
2018-01-05T22:19:56.086Z,99.90
2018-01-05T22:22:28.277Z,99.90
2018-01-05T22:24:59.287Z,99.90
2018-01-05T22:27:32.245Z,99.90
2018-01-05T22:30:00.622Z,99.90
2018-01-05T22:32:28.676Z,99.90
2018-01-05T22:34:57.218Z,99.90
2018-01-05T22:37:25.329Z,99.90
2018-01-05T22:39:53.399Z,99.90
2018-01-05T22:42:21.436Z,99.90
2018-01-05T22:44:49.458Z,99.90
2018-01-05T22:47:21.446Z,99.90
2018-01-05T22:49:49.519Z,99.90
2018-01-05T22:52:17.482Z,99.90
2018-01-05T22:54:45.511Z,99.90
2018-01-05T22:57:13.517Z,99.90
2018-01-05T22:59:42.503Z,99.90
2018-01-05T23:02:10.532Z,99.90
2018-01-05T23:04:38.670Z,99.90
2018-01-05T23:07:06.679Z,99.90
2018-01-05T23:09:34.712Z,99.90
2018-01-05T23:12:02.721Z,99.90
2018-01-05T23:14:30.771Z,99.90
2018-01-05T23:16:59.578Z,99.90
2018-01-05T23:19:27.695Z,99.90
2018-01-05T23:21:55.792Z,99.90
2018-01-05T23:24:23.823Z,99.90
2018-01-05T23:26:51.977Z,99.90
2018-01-05T23:29:20.739Z,99.90
2018-01-05T23:31:49.598Z,99.90
2018-01-05T23:34:17.618Z,99.90
2018-01-05T23:36:45.675Z,99.90
2018-01-05T23:39:13.690Z,99.90
2018-01-05T23:41:41.772Z,99.90
2018-01-05T23:44:09.760Z,99.90
2018-01-05T23:46:38.067Z,99.90
2018-01-05T23:49:06.905Z,99.90
2018-01-05T23:51:34.905Z,99.90
2018-01-05T23:54:03.745Z,99.90
2018-01-05T23:56:31.864Z,99.90
2018-01-05T23:58:59.911Z,99.90
